Time;durP1;ratioP1;P1;durP2;ratioP2;P2;SDS_P1;SDS_P2;PMS_P1;PMS_P2;Temp;Humidity;BMP_temperature;BMP_pressure;BME280_temperature;BME280_humidity;BME280_pressure;Samples;Min_cycle;Max_cycle;Signal;HPM_P1;HPM_P2
2021/09/09 00:00:53;;;;;;;;;22.25;19.75;;;;;;;;4990202;28;45551;-69
2021/09/09 00:03:19;;;;;;;;;27.25;24.50;;;;;;;;4989765;28;46966;-70
2021/09/09 00:05:44;;;;;;;;;24.75;21.00;;;;;;;;4992004;28;45287;-70
2021/09/09 00:08:10;;;;;;;;;23.00;20.75;;;;;;;;4988794;28;45345;-69
2021/09/09 00:10:35;;;;;;;;;23.50;22.50;;;;;;;;4988876;28;45407;-69
2021/09/09 00:13:00;;;;;;;;;22.25;18.75;;;;;;;;4990075;28;46232;-69
2021/09/09 00:15:25;;;;;;;;;21.25;19.75;;;;;;;;4990612;28;45532;-69
2021/09/09 00:17:50;;;;;;;;;21.50;20.00;;;;;;;;4991708;28;45310;-70
2021/09/09 00:20:16;;;;;;;;;19.50;18.75;;;;;;;;4990728;28;45582;-69
2021/09/09 00:22:41;;;;;;;;;20.00;19.00;;;;;;;;4989855;28;47090;-69
2021/09/09 00:25:07;;;;;;;;;22.00;21.50;;;;;;;;4989729;28;45613;-69
2021/09/09 00:27:32;;;;;;;;;23.50;20.50;;;;;;;;4990267;28;45294;-69
2021/09/09 00:29:58;;;;;;;;;20.00;18.00;;;;;;;;4991356;28;45182;-70
2021/09/09 00:32:23;;;;;;;;;25.00;21.00;;;;;;;;4990502;28;46327;-69
2021/09/09 00:34:48;;;;;;;;;21.50;20.50;;;;;;;;4989884;28;45626;-69
2021/09/09 00:37:13;;;;;;;;;23.50;21.25;;;;;;;;4990061;28;45384;-69
2021/09/09 00:39:38;;;;;;;;;20.50;17.00;;;;;;;;4972445;28;45434;-69
2021/09/09 00:42:04;;;;;;;;;17.00;16.00;;;;;;;;4990177;28;45338;-69
2021/09/09 00:44:29;;;;;;;;;20.75;19.25;;;;;;;;4991755;28;45309;-69
2021/09/09 00:46:58;;;;;;;;;25.00;19.00;;;;;;;;4987825;28;45305;-69
2021/09/09 00:49:23;;;;;;;;;22.75;19.75;;;;;;;;4988367;28;45415;-70
2021/09/09 00:51:48;;;;;;;;;21.00;21.00;;;;;;;;4989090;28;47108;-69
2021/09/09 00:54:14;;;;;;;;;23.00;21.50;;;;;;;;4989744;28;45548;-69
2021/09/09 00:56:39;;;;;;;;;19.00;18.25;;;;;;;;4991661;28;45399;-69
2021/09/09 00:59:04;;;;;;;;;21.00;21.00;;;;;;;;4991699;28;45488;-69
2021/09/09 01:01:29;;;;;;;;;20.25;20.25;;;;;;;;4991761;28;45240;-69
2021/09/09 01:03:55;;;;;;;;;22.75;21.75;;;;;;;;4992570;28;45414;-68
2021/09/09 01:06:20;;;;;;;;;16.50;16.00;;;;;;;;4993012;28;45407;-69
2021/09/09 01:08:45;;;;;;;;;25.25;22.75;;;;;;;;4994633;28;45281;-68
2021/09/09 01:11:10;;;;;;;;;19.00;18.50;;;;;;;;4992443;28;45488;-67
2021/09/09 01:13:35;;;;;;;;;24.25;20.50;;;;;;;;4992231;28;46031;-68
2021/09/09 01:16:01;;;;;;;;;21.00;19.50;;;;;;;;4992103;28;45260;-69
2021/09/09 01:18:26;;;;;;;;;22.50;22.50;;;;;;;;4991939;28;45406;-69
2021/09/09 01:20:51;;;;;;;;;21.75;19.75;;;;;;;;4993912;28;45363;-69
2021/09/09 01:23:18;;;;;;;;;20.75;20.75;;;;;;;;4993046;28;45465;-69
2021/09/09 01:25:43;;;;;;;;;27.25;20.75;;;;;;;;4990828;28;45417;-69
2021/09/09 01:28:08;;;;;;;;;26.25;22.75;;;;;;;;4990673;28;45392;-69
2021/09/09 01:30:35;;;;;;;;;16.50;15.00;;;;;;;;4992013;28;45523;-70
2021/09/09 01:33:01;;;;;;;;;19.25;17.75;;;;;;;;4993040;28;45380;-67
2021/09/09 01:35:26;;;;;;;;;28.25;22.50;;;;;;;;4993893;28;45380;-67
2021/09/09 01:37:51;;;;;;;;;22.25;20.75;;;;;;;;4992026;28;45572;-67
2021/09/09 01:40:25;;;;;;;;;22.75;21.75;;;;;;;;4991765;28;47318;-68
2021/09/09 01:42:51;;;;;;;;;23.25;20.75;;;;;;;;4992103;28;45513;-67
2021/09/09 01:45:16;;;;;;;;;20.50;18.50;;;;;;;;4991853;28;45522;-69
2021/09/09 01:47:41;;;;;;;;;18.50;18.25;;;;;;;;4993962;28;45337;-68
2021/09/09 01:50:06;;;;;;;;;26.00;25.50;;;;;;;;4991462;28;45561;-68
2021/09/09 01:52:31;;;;;;;;;23.25;19.75;;;;;;;;4991699;28;45439;-67
2021/09/09 01:54:57;;;;;;;;;19.75;19.75;;;;;;;;4991916;28;45516;-67
2021/09/09 01:57:22;;;;;;;;;24.75;20.25;;;;;;;;4991845;28;45339;-68
2021/09/09 01:59:47;;;;;;;;;30.00;24.00;;;;;;;;4993522;28;46074;-68
2021/09/09 02:02:12;;;;;;;;;21.50;21.00;;;;;;;;4991281;28;45404;-67
2021/09/09 02:04:38;;;;;;;;;21.75;18.50;;;;;;;;4990372;28;45342;-68
2021/09/09 02:07:03;;;;;;;;;18.00;16.75;;;;;;;;4990406;28;45391;-67
2021/09/09 02:09:28;;;;;;;;;20.00;19.25;;;;;;;;4991086;28;46968;-67
2021/09/09 02:11:53;;;;;;;;;27.75;27.00;;;;;;;;4992914;28;45233;-67
2021/09/09 02:14:18;;;;;;;;;21.00;21.00;;;;;;;;4992214;28;45373;-67
2021/09/09 02:16:44;;;;;;;;;22.75;20.25;;;;;;;;4991746;28;45554;-68
2021/09/09 02:19:09;;;;;;;;;24.75;20.75;;;;;;;;4991565;28;46335;-68
2021/09/09 02:21:34;;;;;;;;;17.75;17.75;;;;;;;;4991642;28;45428;-67
2021/09/09 02:24:00;;;;;;;;;18.75;17.75;;;;;;;;4992813;28;45619;-67
2021/09/09 02:26:25;;;;;;;;;20.00;18.00;;;;;;;;4992974;28;45324;-67
2021/09/09 02:28:50;;;;;;;;;21.75;21.25;;;;;;;;4991097;28;46302;-67
2021/09/09 02:31:15;;;;;;;;;20.00;18.75;;;;;;;;4991452;28;45403;-67
2021/09/09 02:33:40;;;;;;;;;26.00;21.75;;;;;;;;4991534;28;45362;-67
2021/09/09 02:36:06;;;;;;;;;22.50;22.25;;;;;;;;4991881;28;45505;-69
2021/09/09 02:38:31;;;;;;;;;22.00;20.00;;;;;;;;4975582;28;46088;-67
2021/09/09 02:40:56;;;;;;;;;22.75;22.00;;;;;;;;4991286;28;45472;-68
2021/09/09 02:43:21;;;;;;;;;23.25;22.50;;;;;;;;4989725;28;45392;-69
2021/09/09 02:45:46;;;;;;;;;20.00;18.25;;;;;;;;4989851;28;45426;-69
2021/09/09 02:48:11;;;;;;;;;24.25;24.00;;;;;;;;4990870;28;46059;-69
2021/09/09 02:50:37;;;;;;;;;23.50;21.75;;;;;;;;4993088;28;45457;-70
2021/09/09 02:53:02;;;;;;;;;22.75;22.75;;;;;;;;4990880;28;45513;-68
2021/09/09 02:55:28;;;;;;;;;23.75;21.50;;;;;;;;4991028;28;45487;-68
2021/09/09 02:57:53;;;;;;;;;27.00;24.50;;;;;;;;4990340;28;46089;-68
2021/09/09 03:00:18;;;;;;;;;29.75;25.50;;;;;;;;4991115;28;45283;-67
2021/09/09 03:02:43;;;;;;;;;23.50;23.00;;;;;;;;4993072;28;45328;-68
2021/09/09 03:05:09;;;;;;;;;26.00;24.00;;;;;;;;4991076;28;45697;-68
2021/09/09 03:07:34;;;;;;;;;25.25;22.75;;;;;;;;4991019;28;45281;-68
2021/09/09 03:09:59;;;;;;;;;20.50;19.75;;;;;;;;4991192;28;45366;-68
2021/09/09 03:12:25;;;;;;;;;32.25;26.50;;;;;;;;4990969;28;45592;-68
2021/09/09 03:14:50;;;;;;;;;25.50;24.75;;;;;;;;4992502;28;45476;-68
2021/09/09 03:17:15;;;;;;;;;23.00;22.75;;;;;;;;4991116;28;45563;-69
2021/09/09 03:19:40;;;;;;;;;22.50;22.25;;;;;;;;4990276;28;45519;-68
2021/09/09 03:22:06;;;;;;;;;25.25;24.75;;;;;;;;4988233;28;45345;-68
2021/09/09 03:24:31;;;;;;;;;25.75;22.75;;;;;;;;4989700;28;45428;-68
2021/09/09 03:26:56;;;;;;;;;32.50;27.00;;;;;;;;4991251;28;46387;-68
2021/09/09 03:29:21;;;;;;;;;24.25;22.00;;;;;;;;4991554;28;45559;-69
2021/09/09 03:31:47;;;;;;;;;29.00;25.25;;;;;;;;4990532;28;45269;-68
2021/09/09 03:34:12;;;;;;;;;25.75;22.50;;;;;;;;4990507;28;45429;-68
2021/09/09 03:36:37;;;;;;;;;24.00;24.00;;;;;;;;4990067;28;46445;-68
2021/09/09 03:39:02;;;;;;;;;24.75;23.00;;;;;;;;4990587;28;45479;-69
2021/09/09 03:41:27;;;;;;;;;29.50;27.00;;;;;;;;4992321;28;45517;-70
2021/09/09 03:43:53;;;;;;;;;28.00;27.25;;;;;;;;4990596;28;45429;-70
2021/09/09 03:46:18;;;;;;;;;22.25;20.50;;;;;;;;4990231;28;45553;-70
2021/09/09 03:48:43;;;;;;;;;24.25;22.25;;;;;;;;4989936;28;45516;-70
2021/09/09 03:51:08;;;;;;;;;24.00;24.00;;;;;;;;4972856;28;45593;-68
2021/09/09 03:53:34;;;;;;;;;23.00;21.25;;;;;;;;4992423;28;45477;-68
2021/09/09 03:55:59;;;;;;;;;30.00;24.50;;;;;;;;4989857;28;46352;-68
2021/09/09 03:58:24;;;;;;;;;22.25;22.00;;;;;;;;4989692;28;45421;-70
2021/09/09 04:00:49;;;;;;;;;23.00;18.25;;;;;;;;4988912;28;45347;-68
2021/09/09 04:03:14;;;;;;;;;20.75;20.75;;;;;;;;4989585;28;45338;-70
2021/09/09 04:05:39;;;;;;;;;25.00;25.00;;;;;;;;4991521;28;45462;-70
2021/09/09 04:08:07;;;;;;;;;28.75;24.75;;;;;;;;4972578;28;45322;-70
2021/09/09 04:10:32;;;;;;;;;24.50;21.75;;;;;;;;4989813;28;45407;-70
2021/09/09 04:12:57;;;;;;;;;22.25;20.25;;;;;;;;4989760;28;45627;-70
2021/09/09 04:15:23;;;;;;;;;25.50;23.50;;;;;;;;4989665;28;46156;-70
2021/09/09 04:17:48;;;;;;;;;24.25;20.00;;;;;;;;4991767;28;45367;-69
2021/09/09 04:20:13;;;;;;;;;22.50;20.25;;;;;;;;4989676;28;45303;-70
2021/09/09 04:22:38;;;;;;;;;29.75;27.00;;;;;;;;4989903;28;45295;-70
2021/09/09 04:25:05;;;;;;;;;22.75;22.50;;;;;;;;4989067;28;45489;-69
2021/09/09 04:27:31;;;;;;;;;22.00;21.00;;;;;;;;4989524;28;45540;-69
2021/09/09 04:29:56;;;;;;;;;33.25;30.75;;;;;;;;4990800;28;45296;-70
2021/09/09 04:32:22;;;;;;;;;27.25;26.75;;;;;;;;4991401;28;45355;-69
2021/09/09 04:34:47;;;;;;;;;22.50;19.50;;;;;;;;4992440;28;45498;-69
2021/09/09 04:37:12;;;;;;;;;25.75;21.00;;;;;;;;4992252;28;45382;-69
2021/09/09 04:39:37;;;;;;;;;27.00;24.00;;;;;;;;4990408;28;45296;-69
2021/09/09 04:42:03;;;;;;;;;26.75;25.75;;;;;;;;4992797;28;45537;-69
2021/09/09 04:44:28;;;;;;;;;22.50;19.25;;;;;;;;4991549;27;46459;-69
2021/09/09 04:46:53;;;;;;;;;26.00;24.25;;;;;;;;4991804;28;45512;-68
2021/09/09 04:49:18;;;;;;;;;30.75;26.75;;;;;;;;4992273;28;45396;-69
2021/09/09 04:51:44;;;;;;;;;31.25;29.00;;;;;;;;4991680;28;45709;-69
2021/09/09 04:54:09;;;;;;;;;27.25;23.00;;;;;;;;4991354;28;46157;-68
2021/09/09 04:56:34;;;;;;;;;29.00;25.00;;;;;;;;4993613;28;45295;-68
2021/09/09 04:58:59;;;;;;;;;25.50;23.25;;;;;;;;4991816;28;45501;-68
2021/09/09 05:01:25;;;;;;;;;32.00;26.50;;;;;;;;4973221;28;45535;-70
2021/09/09 05:03:50;;;;;;;;;28.50;24.25;;;;;;;;4991181;28;46088;-70
2021/09/09 05:06:16;;;;;;;;;26.50;23.25;;;;;;;;4991639;28;45517;-69
2021/09/09 05:08:41;;;;;;;;;29.25;26.25;;;;;;;;4993164;28;45490;-69
2021/09/09 05:11:10;;;;;;;;;31.00;29.25;;;;;;;;4991331;28;45406;-68
2021/09/09 05:13:36;;;;;;;;;32.25;29.00;;;;;;;;4991295;28;47046;-81
2021/09/09 05:16:01;;;;;;;;;28.50;27.50;;;;;;;;4991301;28;45402;-80
2021/09/09 05:18:26;;;;;;;;;25.25;23.25;;;;;;;;4990032;28;45418;-74
2021/09/09 05:20:51;;;;;;;;;25.50;23.25;;;;;;;;4993986;28;45349;-77
2021/09/09 05:23:16;;;;;;;;;37.75;31.75;;;;;;;;4990385;28;46141;-76
2021/09/09 05:25:42;;;;;;;;;28.00;25.75;;;;;;;;4991430;28;47130;-72
2021/09/09 05:28:07;;;;;;;;;31.75;28.25;;;;;;;;4989764;28;45319;-77
2021/09/09 05:30:32;;;;;;;;;27.50;24.25;;;;;;;;4973709;28;45614;-74
2021/09/09 05:32:57;;;;;;;;;31.25;27.75;;;;;;;;4992282;28;46452;-79
2021/09/09 05:35:23;;;;;;;;;30.75;26.50;;;;;;;;4989951;28;45418;-77
2021/09/09 05:37:48;;;;;;;;;34.75;31.25;;;;;;;;4989797;28;45300;-82
2021/09/09 05:40:13;;;;;;;;;30.00;26.75;;;;;;;;4990911;28;45497;-77
2021/09/09 05:42:38;;;;;;;;;38.75;31.50;;;;;;;;4990617;28;45981;-76
2021/09/09 05:45:04;;;;;;;;;33.75;31.25;;;;;;;;4990542;28;45312;-81
2021/09/09 05:47:29;;;;;;;;;33.75;29.50;;;;;;;;4990703;28;45380;-75
2021/09/09 05:49:55;;;;;;;;;31.00;28.75;;;;;;;;4990472;28;45286;-79
2021/09/09 05:52:20;;;;;;;;;27.00;26.00;;;;;;;;4990132;28;45958;-83
2021/09/09 05:54:45;;;;;;;;;34.00;28.75;;;;;;;;4990958;28;45468;-80
2021/09/09 05:57:10;;;;;;;;;31.00;30.50;;;;;;;;4990477;28;45207;-81
2021/09/09 05:59:36;;;;;;;;;29.50;28.50;;;;;;;;4991987;28;45451;-81
2021/09/09 06:02:01;;;;;;;;;36.25;29.50;;;;;;;;4988460;28;46334;-78
2021/09/09 06:04:27;;;;;;;;;28.75;28.25;;;;;;;;4990714;28;45283;-80
2021/09/09 06:06:52;;;;;;;;;27.00;27.00;;;;;;;;4972953;28;45434;-82
2021/09/09 06:09:18;;;;;;;;;34.50;30.25;;;;;;;;4990965;28;45414;-82
2021/09/09 06:11:43;;;;;;;;;28.00;26.75;;;;;;;;4992124;28;47049;-82
2021/09/09 06:14:08;;;;;;;;;29.75;27.25;;;;;;;;4990327;28;45229;-82
2021/09/09 06:16:34;;;;;;;;;33.00;32.50;;;;;;;;4989611;28;45454;-83
2021/09/09 06:18:59;;;;;;;;;36.25;32.50;;;;;;;;4990021;28;45355;-83
2021/09/09 06:21:25;;;;;;;;;33.00;32.50;;;;;;;;4989717;28;45319;-83
2021/09/09 06:23:50;;;;;;;;;43.00;34.00;;;;;;;;4992182;28;45344;-81
2021/09/09 06:26:16;;;;;;;;;40.75;31.50;;;;;;;;4989155;28;45390;-82
2021/09/09 06:28:41;;;;;;;;;30.00;28.75;;;;;;;;4988276;28;45411;-79
2021/09/09 06:31:07;;;;;;;;;35.25;30.00;;;;;;;;4991508;28;45539;-80
2021/09/09 06:33:32;;;;;;;;;31.25;29.25;;;;;;;;4979360;28;45332;-79
2021/09/09 06:35:57;;;;;;;;;42.50;36.25;;;;;;;;4999090;28;45405;-78
2021/09/09 06:38:23;;;;;;;;;40.00;33.25;;;;;;;;4989040;27;45509;-81
2021/09/09 06:40:48;;;;;;;;;34.00;29.25;;;;;;;;4988389;28;45568;-80
2021/09/09 06:43:13;;;;;;;;;35.25;34.00;;;;;;;;4989105;28;45470;-73
2021/09/09 06:45:38;;;;;;;;;38.75;32.75;;;;;;;;4989478;28;45537;-74
2021/09/09 06:48:04;;;;;;;;;40.50;33.75;;;;;;;;4989689;28;45380;-75
2021/09/09 06:50:29;;;;;;;;;43.25;37.75;;;;;;;;4990601;28;45934;-74
2021/09/09 06:52:54;;;;;;;;;44.00;35.50;;;;;;;;4988975;28;47053;-75
2021/09/09 06:55:23;;;;;;;;;38.00;34.75;;;;;;;;4989828;28;45449;-74
2021/09/09 06:57:48;;;;;;;;;37.25;34.25;;;;;;;;4989498;28;45435;-74
2021/09/09 07:00:13;;;;;;;;;40.75;34.75;;;;;;;;4989018;28;45378;-74
2021/09/09 07:02:42;;;;;;;;;34.00;31.00;;;;;;;;4991213;28;45465;-73
2021/09/09 07:05:08;;;;;;;;;40.50;33.75;;;;;;;;4989329;28;45464;-73
2021/09/09 07:07:33;;;;;;;;;38.00;31.75;;;;;;;;4989053;28;45514;-74
2021/09/09 07:09:59;;;;;;;;;36.25;29.75;;;;;;;;4988771;28;46858;-74
2021/09/09 07:12:24;;;;;;;;;38.50;33.75;;;;;;;;4988905;28;45615;-74
2021/09/09 07:14:49;;;;;;;;;33.00;30.00;;;;;;;;4991344;28;45454;-73
2021/09/09 07:17:14;;;;;;;;;34.00;30.75;;;;;;;;4987690;28;45298;-74
2021/09/09 07:19:39;;;;;;;;;36.50;32.00;;;;;;;;4987129;28;46071;-75
2021/09/09 07:22:05;;;;;;;;;37.00;32.50;;;;;;;;4988758;28;45359;-74
2021/09/09 07:24:30;;;;;;;;;42.00;34.00;;;;;;;;4989254;28;45306;-72
2021/09/09 07:26:55;;;;;;;;;39.75;35.50;;;;;;;;4987808;28;45401;-73
2021/09/09 07:29:21;;;;;;;;;39.75;35.50;;;;;;;;4973759;28;46963;-75
2021/09/09 07:31:46;;;;;;;;;21.50;21.50;;;;;;;;4986656;28;45445;-73
2021/09/09 07:34:12;;;;;;;;;32.25;29.50;;;;;;;;4989007;28;45271;-75
2021/09/09 07:36:37;;;;;;;;;40.25;34.75;;;;;;;;4989011;28;45429;-74
2021/09/09 07:39:03;;;;;;;;;42.50;36.50;;;;;;;;4989681;28;45902;-74
2021/09/09 07:41:28;;;;;;;;;37.00;31.50;;;;;;;;4991046;28;45221;-74
2021/09/09 07:43:53;;;;;;;;;36.00;28.25;;;;;;;;4988957;28;45463;-73
2021/09/09 07:46:18;;;;;;;;;37.50;30.25;;;;;;;;4988251;28;45238;-73
2021/09/09 07:48:44;;;;;;;;;30.00;27.00;;;;;;;;4985887;28;46386;-74
2021/09/09 07:51:09;;;;;;;;;27.00;24.75;;;;;;;;4988274;28;45356;-74
2021/09/09 07:53:34;;;;;;;;;36.00;29.25;;;;;;;;4990677;28;45332;-74
2021/09/09 07:55:59;;;;;;;;;31.50;29.50;;;;;;;;4986728;28;45451;-74
2021/09/09 07:58:25;;;;;;;;;37.50;34.25;;;;;;;;4986999;28;46332;-74
2021/09/09 08:00:50;;;;;;;;;36.50;33.25;;;;;;;;4988037;28;45380;-73
2021/09/09 08:03:19;;;;;;;;;31.25;29.00;;;;;;;;4988793;28;45373;-73
2021/09/09 08:05:44;;;;;;;;;42.75;30.25;;;;;;;;4990688;28;45267;-74
2021/09/09 08:08:09;;;;;;;;;41.50;35.25;;;;;;;;4987508;28;46220;-74
2021/09/09 08:10:34;;;;;;;;;28.50;26.50;;;;;;;;4988689;28;45447;-73
2021/09/09 08:13:00;;;;;;;;;41.50;34.25;;;;;;;;4988480;28;47710;-73
2021/09/09 08:15:25;;;;;;;;;29.25;26.75;;;;;;;;4988591;27;45233;-73
2021/09/09 08:17:50;;;;;;;;;27.50;26.00;;;;;;;;4989742;28;46478;-72
2021/09/09 08:20:16;;;;;;;;;32.00;29.75;;;;;;;;4988425;28;46830;-72
2021/09/09 08:22:42;;;;;;;;;32.50;29.25;;;;;;;;4989101;28;45366;-73
2021/09/09 08:25:08;;;;;;;;;25.50;25.50;;;;;;;;4989112;28;45520;-73
2021/09/09 08:27:33;;;;;;;;;31.25;27.50;;;;;;;;4987643;28;45481;-73
2021/09/09 08:29:58;;;;;;;;;37.00;29.75;;;;;;;;5022487;27;45250;-74
2021/09/09 08:32:25;;;;;;;;;30.50;28.00;;;;;;;;4988900;28;45342;-74
2021/09/09 08:34:53;;;;;;;;;27.25;26.00;;;;;;;;4987290;28;46579;-74
2021/09/09 08:37:19;;;;;;;;;31.75;28.50;;;;;;;;4985898;28;45683;-74
2021/09/09 08:39:44;;;;;;;;;33.75;31.50;;;;;;;;4987900;28;45409;-76
2021/09/09 08:42:11;;;;;;;;;31.25;27.75;;;;;;;;4988436;28;45508;-74
2021/09/09 08:44:36;;;;;;;;;36.25;31.25;;;;;;;;4989687;28;46005;-74
2021/09/09 08:47:02;;;;;;;;;26.75;26.75;;;;;;;;4986794;28;47171;-73
2021/09/09 08:49:28;;;;;;;;;28.00;24.50;;;;;;;;4987269;28;45202;-73
2021/09/09 08:51:54;;;;;;;;;28.25;25.50;;;;;;;;4987802;28;45358;-73
2021/09/09 08:54:22;;;;;;;;;35.25;29.75;;;;;;;;4987856;28;45450;-77
2021/09/09 08:56:47;;;;;;;;;31.00;27.75;;;;;;;;4985328;28;46417;-75
2021/09/09 08:59:12;;;;;;;;;22.50;20.25;;;;;;;;4987774;28;45477;-73
2021/09/09 09:01:58;;;;;;;;;27.50;26.50;;;;;;;;4987576;28;45287;-72
2021/09/09 09:04:23;;;;;;;;;32.50;28.75;;;;;;;;4987225;28;45546;-74
2021/09/09 09:06:50;;;;;;;;;31.25;27.75;;;;;;;;4969915;28;48022;-73
2021/09/09 09:09:19;;;;;;;;;24.50;24.50;;;;;;;;4988045;28;45547;-73
2021/09/09 09:11:45;;;;;;;;;24.00;23.25;;;;;;;;4990211;28;45466;-75
2021/09/09 09:14:11;;;;;;;;;28.25;25.75;;;;;;;;4985788;28;46485;-75
2021/09/09 09:16:42;;;;;;;;;28.00;25.50;;;;;;;;4985686;28;46504;-76
2021/09/09 09:19:11;;;;;;;;;29.25;26.50;;;;;;;;4988117;28;45196;-76
2021/09/09 09:21:41;;;;;;;;;23.50;21.50;;;;;;;;4971678;28;45791;-74
2021/09/09 09:24:06;;;;;;;;;25.50;24.00;;;;;;;;4990361;28;45298;-74
2021/09/09 09:26:31;;;;;;;;;40.25;32.00;;;;;;;;4992711;28;46153;-74
2021/09/09 09:28:59;;;;;;;;;28.50;25.75;;;;;;;;4991071;28;45543;-73
2021/09/09 09:31:26;;;;;;;;;31.00;28.75;;;;;;;;4990369;28;45398;-74
2021/09/09 09:34:09;;;;;;;;;27.00;24.75;;;;;;;;4990840;28;45472;-74
2021/09/09 09:36:39;;;;;;;;;28.50;28.00;;;;;;;;4976799;28;47203;-74
2021/09/09 09:39:07;;;;;;;;;28.25;25.75;;;;;;;;4991111;28;45633;-73
2021/09/09 09:41:32;;;;;;;;;25.00;24.25;;;;;;;;4973405;28;45548;-74
2021/09/09 09:43:59;;;;;;;;;29.75;26.75;;;;;;;;4990195;28;45305;-73
2021/09/09 09:46:29;;;;;;;;;27.50;21.75;;;;;;;;4990114;28;45388;-74
2021/09/09 09:48:54;;;;;;;;;33.25;26.00;;;;;;;;4989671;28;45460;-75
2021/09/09 09:51:41;;;;;;;;;19.50;19.25;;;;;;;;4988962;28;45305;-74
2021/09/09 09:54:11;;;;;;;;;21.25;20.00;;;;;;;;4989681;28;45222;-73
2021/09/09 09:56:36;;;;;;;;;28.75;26.00;;;;;;;;4991201;28;46297;-75
2021/09/09 09:59:02;;;;;;;;;24.50;24.50;;;;;;;;4989688;28;45331;-75
2021/09/09 10:01:28;;;;;;;;;22.50;22.00;;;;;;;;4990381;28;45378;-76
2021/09/09 10:03:56;;;;;;;;;21.50;20.25;;;;;;;;4991196;28;45569;-73
2021/09/09 10:06:22;;;;;;;;;24.50;22.25;;;;;;;;4972693;28;47408;-74
2021/09/09 10:08:47;;;;;;;;;21.75;19.75;;;;;;;;4992393;28;45480;-75
2021/09/09 10:11:13;;;;;;;;;21.50;19.50;;;;;;;;4990347;28;45298;-76
2021/09/09 10:13:38;;;;;;;;;25.00;21.00;;;;;;;;4990237;28;45541;-76
2021/09/09 10:16:04;;;;;;;;;23.00;21.75;;;;;;;;4989759;28;45268;-75
2021/09/09 10:18:30;;;;;;;;;25.75;22.75;;;;;;;;4989671;28;45542;-76
2021/09/09 10:20:56;;;;;;;;;23.50;22.25;;;;;;;;4991141;28;45313;-74
2021/09/09 10:23:25;;;;;;;;;21.50;21.50;;;;;;;;4990477;28;45357;-73
2021/09/09 10:25:54;;;;;;;;;23.50;22.25;;;;;;;;4989469;28;45863;-76
2021/09/09 10:28:32;;;;;;;;;26.00;23.25;;;;;;;;4989121;28;45452;-74
2021/09/09 10:31:02;;;;;;;;;21.50;21.25;;;;;;;;4986180;27;45484;-73
2021/09/09 10:33:28;;;;;;;;;19.00;15.75;;;;;;;;4988591;28;45398;-75
2021/09/09 10:35:53;;;;;;;;;21.50;21.25;;;;;;;;4990898;28;45295;-75
2021/09/09 10:38:18;;;;;;;;;24.50;24.50;;;;;;;;4990344;28;45516;-73
2021/09/09 10:40:44;;;;;;;;;25.25;23.75;;;;;;;;4989848;28;45401;-72
2021/09/09 10:43:12;;;;;;;;;21.75;19.75;;;;;;;;4989774;28;45582;-74
2021/09/09 10:45:44;;;;;;;;;24.75;22.25;;;;;;;;4989641;28;45343;-73
2021/09/09 10:48:20;;;;;;;;;17.75;17.50;;;;;;;;4989476;28;45273;-73
2021/09/09 10:51:02;;;;;;;;;19.25;18.75;;;;;;;;4991600;28;45324;-74
2021/09/09 10:53:34;;;;;;;;;19.00;16.50;;;;;;;;4991565;28;45315;-74
2021/09/09 10:56:20;;;;;;;;;16.50;15.50;;;;;;;;4987192;27;47020;-76
2021/09/09 10:58:46;;;;;;;;;15.25;14.25;;;;;;;;4988697;28;45298;-75
2021/09/09 11:01:11;;;;;;;;;16.50;15.50;;;;;;;;4989373;28;45416;-76
2021/09/09 11:03:44;;;;;;;;;22.25;20.00;;;;;;;;4971055;28;45597;-77
2021/09/09 11:06:14;;;;;;;;;21.50;17.75;;;;;;;;4989403;28;45704;-76
2021/09/09 11:08:40;;;;;;;;;15.50;15.50;;;;;;;;4990336;27;45451;-76
2021/09/09 11:11:07;;;;;;;;;16.50;15.25;;;;;;;;4987613;28;45337;-76
2021/09/09 11:13:33;;;;;;;;;12.75;12.75;;;;;;;;4988788;28;45600;-76
2021/09/09 11:15:58;;;;;;;;;15.50;14.25;;;;;;;;4988811;28;46562;-76
2021/09/09 11:18:24;;;;;;;;;16.25;15.75;;;;;;;;4988890;28;45431;-76
2021/09/09 11:20:59;;;;;;;;;11.33;11.33;;;;;;;;4992236;28;45296;-76
2021/09/09 11:23:24;;;;;;;;;7.67;7.67;;;;;;;;4990358;28;45336;-76
2021/09/09 11:25:49;;;;;;;;;13.00;9.00;;;;;;;;4988302;28;45417;-75
2021/09/09 11:28:17;;;;;;;;;8.67;8.67;;;;;;;;4988928;28;45373;-75
2021/09/09 11:30:42;;;;;;;;;10.67;8.33;;;;;;;;4989390;28;45454;-74
2021/09/09 11:33:07;;;;;;;;;8.00;8.00;;;;;;;;4988735;28;45510;-75
2021/09/09 11:35:32;;;;;;;;;12.25;11.50;;;;;;;;4991271;28;46468;-77
2021/09/09 11:37:58;;;;;;;;;8.00;7.00;;;;;;;;4988175;28;45513;-74
2021/09/09 11:40:23;;;;;;;;;6.00;6.00;;;;;;;;4988657;28;45406;-73
2021/09/09 11:42:48;;;;;;;;;7.67;7.67;;;;;;;;4987955;28;45404;-76
2021/09/09 11:45:13;;;;;;;;;8.00;8.00;;;;;;;;4988548;28;45425;-74
2021/09/09 11:47:41;;;;;;;;;8.00;8.00;;;;;;;;4989618;27;45270;-74
2021/09/09 11:50:06;;;;;;;;;5.33;5.00;;;;;;;;4968858;27;45493;-76
2021/09/09 11:52:32;;;;;;;;;5.00;5.00;;;;;;;;5025190;27;45489;-76
2021/09/09 11:54:58;;;;;;;;;4.33;4.00;;;;;;;;5032327;27;46550;-77
2021/09/09 11:57:23;;;;;;;;;6.00;6.00;;;;;;;;5032996;27;45599;-81
2021/09/09 11:59:50;;;;;;;;;4.00;4.00;;;;;;;;5049770;27;45368;-80
2021/09/09 12:02:17;;;;;;;;;5.00;5.00;;;;;;;;5020133;27;45367;-79
2021/09/09 12:04:42;;;;;;;;;5.00;5.00;;;;;;;;4988569;28;46140;-80
2021/09/09 12:07:08;;;;;;;;;5.00;5.00;;;;;;;;4988641;28;45440;-79
2021/09/09 12:09:38;;;;;;;;;4.00;4.00;;;;;;;;4988820;28;45561;-79
2021/09/09 12:12:08;;;;;;;;;3.00;3.00;;;;;;;;4989426;28;45511;-81
2021/09/09 12:14:34;;;;;;;;;2.33;2.33;;;;;;;;4989155;28;45339;-80
2021/09/09 12:17:05;;;;;;;;;4.00;3.00;;;;;;;;4988955;28;45842;-78
2021/09/09 12:19:49;;;;;;;;;2.67;2.67;;;;;;;;5009493;27;45387;-78
2021/09/09 12:22:14;;;;;;;;;3.33;2.67;;;;;;;;5043472;27;45293;-78
2021/09/09 12:24:39;;;;;;;;;2.00;1.33;;;;;;;;5025585;27;47472;-78
2021/09/09 12:27:04;;;;;;;;;2.67;2.67;;;;;;;;4990953;27;45399;-76
2021/09/09 12:29:37;;;;;;;;;2.00;2.00;;;;;;;;4989140;28;45421;-79
2021/09/09 12:32:22;;;;;;;;;4.00;3.00;;;;;;;;4987596;28;45461;-78
2021/09/09 12:34:48;;;;;;;;;2.00;2.00;;;;;;;;4989202;28;45524;-76
2021/09/09 12:37:14;;;;;;;;;1.00;1.00;;;;;;;;4988204;28;45500;-78
2021/09/09 12:39:46;;;;;;;;;1.00;1.00;;;;;;;;4989052;28;45360;-78
2021/09/09 12:42:11;;;;;;;;;1.00;1.00;;;;;;;;4970730;28;45389;-73
2021/09/09 12:44:36;;;;;;;;;2.67;1.67;;;;;;;;4989342;28;46507;-69
2021/09/09 12:47:13;;;;;;;;;2.00;1.00;;;;;;;;4969948;28;45503;-76
2021/09/09 12:49:39;;;;;;;;;0.00;0.00;;;;;;;;4988233;28;45375;-77
2021/09/09 12:52:07;;;;;;;;;1.00;1.00;;;;;;;;4987382;28;45403;-78
2021/09/09 12:54:38;;;;;;;;;0.67;0.67;;;;;;;;4990794;28;47361;-77
2021/09/09 12:57:04;;;;;;;;;1.00;1.00;;;;;;;;4991829;28;45677;-73
2021/09/09 12:59:30;;;;;;;;;0.00;0.00;;;;;;;;4993425;28;45456;-75
2021/09/09 13:02:12;;;;;;;;;1.00;1.00;;;;;;;;4991454;28;45367;-76
2021/09/09 13:04:37;;;;;;;;;1.00;1.00;;;;;;;;4991383;28;45714;-76
2021/09/09 13:07:02;;;;;;;;;3.33;0.67;;;;;;;;4989369;28;45575;-76
2021/09/09 13:09:29;;;;;;;;;2.67;2.00;;;;;;;;4990389;28;45401;-77
2021/09/09 13:11:54;;;;;;;;;2.00;2.00;;;;;;;;4992883;28;45448;-77
2021/09/09 13:14:20;;;;;;;;;2.00;2.00;;;;;;;;4992278;28;46235;-76
2021/09/09 13:16:45;;;;;;;;;1.00;1.00;;;;;;;;4991468;28;45591;-76
2021/09/09 13:19:13;;;;;;;;;0.67;0.67;;;;;;;;4991246;28;45237;-76
2021/09/09 13:21:38;;;;;;;;;1.00;1.00;;;;;;;;4990963;28;45439;-78
2021/09/09 13:24:04;;;;;;;;;1.00;1.00;;;;;;;;4992060;28;46680;-76
2021/09/09 13:26:29;;;;;;;;;2.00;2.00;;;;;;;;4990810;28;45749;-75
2021/09/09 13:28:55;;;;;;;;;3.00;2.00;;;;;;;;4990973;28;45481;-77
2021/09/09 13:31:22;;;;;;;;;1.00;1.00;;;;;;;;4991071;28;45279;-79
2021/09/09 13:33:48;;;;;;;;;1.67;1.00;;;;;;;;4991223;28;46359;-76
2021/09/09 13:36:14;;;;;;;;;3.00;2.00;;;;;;;;4990786;28;45481;-79
2021/09/09 13:38:39;;;;;;;;;2.00;2.00;;;;;;;;4993415;28;45506;-77
2021/09/09 13:41:05;;;;;;;;;1.00;1.00;;;;;;;;4991519;28;45588;-77
2021/09/09 13:43:30;;;;;;;;;1.00;1.00;;;;;;;;4990414;28;47039;-75
2021/09/09 13:45:56;;;;;;;;;2.33;1.33;;;;;;;;4990634;28;45456;-78
2021/09/09 13:48:21;;;;;;;;;2.33;1.00;;;;;;;;4989838;28;45389;-78
2021/09/09 13:50:46;;;;;;;;;1.00;1.00;;;;;;;;4992555;28;45334;-76
2021/09/09 13:53:11;;;;;;;;;5.00;3.00;;;;;;;;4990741;28;47627;-80
2021/09/09 13:55:37;;;;;;;;;1.00;1.00;;;;;;;;4973528;28;45405;-81
2021/09/09 13:58:02;;;;;;;;;0.67;0.67;;;;;;;;4990977;28;45425;-82
2021/09/09 14:00:27;;;;;;;;;0.67;0.67;;;;;;;;4990610;28;45445;-81
2021/09/09 14:02:52;;;;;;;;;0.00;0.00;;;;;;;;4998432;28;46338;-82
2021/09/09 14:05:18;;;;;;;;;0.00;0.00;;;;;;;;4996783;28;45344;-82
2021/09/09 14:07:44;;;;;;;;;0.67;0.67;;;;;;;;4975275;28;45337;-81
2021/09/09 14:10:10;;;;;;;;;1.33;1.33;;;;;;;;4989992;28;45403;-81
2021/09/09 14:12:36;;;;;;;;;3.00;0.00;;;;;;;;4988868;28;45482;-82
2021/09/09 14:15:03;;;;;;;;;2.00;1.00;;;;;;;;4990944;28;45371;-82